createdAt,value
2024-05-09T00:00:10.000Z,12.939
2024-05-09T00:01:27.000Z,14.657
2024-05-09T00:02:42.000Z,12.939
2024-05-09T00:03:57.000Z,12.201
2024-05-09T00:05:12.000Z,20.439
2024-05-09T00:06:27.000Z,23.438
2024-05-09T00:07:44.000Z,19.754
2024-05-09T00:09:00.000Z,23.498
2024-05-09T00:10:16.000Z,14.034
2024-05-09T00:11:31.000Z,13.244
2024-05-09T00:12:46.000Z,16.109
2024-05-09T00:14:01.000Z,14.657
2024-05-09T00:15:17.000Z,15.35
2024-05-09T00:16:33.000Z,12.446
2024-05-09T00:17:49.000Z,16.803
2024-05-09T00:19:05.000Z,19.877
2024-05-09T00:20:20.000Z,15.592
2024-05-09T00:21:35.000Z,16.636
2024-05-09T00:22:50.000Z,22.805
2024-05-09T00:24:06.000Z,21.476
2024-05-09T00:25:22.000Z,16.348
2024-05-09T00:26:38.000Z,17.12
2024-05-09T00:27:54.000Z,15.629
2024-05-09T00:29:09.000Z,14.351
2024-05-09T00:30:25.000Z,16.219
2024-05-09T00:31:40.000Z,14.034
2024-05-09T00:32:55.000Z,16.102
2024-05-09T00:34:12.000Z,16.808
2024-05-09T00:35:28.000Z,16.624
2024-05-09T00:36:44.000Z,13.714
2024-05-09T00:37:59.000Z,19.901
2024-05-09T00:39:14.000Z,15.329
2024-05-09T00:40:29.000Z,16.219
2024-05-09T00:41:45.000Z,13.96
2024-05-09T00:43:02.000Z,23.334
2024-05-09T00:44:18.000Z,17.335
2024-05-09T00:45:33.000Z,14.927
2024-05-09T00:46:49.000Z,13.147
2024-05-09T00:48:04.000Z,16.808
2024-05-09T00:49:20.000Z,13.437
2024-05-09T00:50:35.000Z,13.872
2024-05-09T00:51:51.000Z,17.827
2024-05-09T00:53:07.000Z,16.219
2024-05-09T00:54:24.000Z,66.664
2024-05-09T00:55:39.000Z,13.872
2024-05-09T00:56:54.000Z,12.26
2024-05-09T00:58:10.000Z,17.222
2024-05-09T00:59:25.000Z,18.01
2024-05-09T01:00:40.000Z,25.673
2024-05-09T01:01:57.000Z,13.127
2024-05-09T01:03:13.000Z,13.688
2024-05-09T01:04:29.000Z,14.987
2024-05-09T01:05:44.000Z,16.303
2024-05-09T01:07:00.000Z,18.836
2024-05-09T01:08:15.000Z,16.931
2024-05-09T01:09:31.000Z,16.219
2024-05-09T01:10:46.000Z,13.437
2024-05-09T01:12:03.000Z,16.38
2024-05-09T01:13:19.000Z,17.424
2024-05-09T01:14:35.000Z,42.35
2024-05-09T01:15:50.000Z,14.927
2024-05-09T01:17:05.000Z,12.578
2024-05-09T01:18:21.000Z,14.804
2024-05-09T01:19:37.000Z,14.034
2024-05-09T01:20:53.000Z,12.578
2024-05-09T01:22:09.000Z,14.034
2024-05-09T01:23:26.000Z,16.301
2024-05-09T01:24:41.000Z,21.751
2024-05-09T01:25:57.000Z,14.034
2024-05-09T01:27:12.000Z,14.804
2024-05-09T01:28:27.000Z,15.669
2024-05-09T01:29:43.000Z,21.52
2024-05-09T01:30:59.000Z,16.651
2024-05-09T01:32:16.000Z,14.396
2024-05-09T01:33:32.000Z,14.034
2024-05-09T01:34:47.000Z,18.554
2024-05-09T01:36:03.000Z,13.437
2024-05-09T01:37:18.000Z,18.482
2024-05-09T01:38:33.000Z,14.034
2024-05-09T01:39:49.000Z,13.96
2024-05-09T01:41:05.000Z,13.127
2024-05-09T01:42:21.000Z,15.423
2024-05-09T01:43:37.000Z,18.165
2024-05-09T01:44:52.000Z,12.578
2024-05-09T01:46:07.000Z,23.552
2024-05-09T01:47:23.000Z,17.779
2024-05-09T01:48:38.000Z,13.301
2024-05-09T01:49:53.000Z,15.281
2024-05-09T01:51:10.000Z,18.528
2024-05-09T01:52:27.000Z,13.413
2024-05-09T01:53:42.000Z,12.939
2024-05-09T01:54:57.000Z,12.82
2024-05-09T01:56:12.000Z,13.437
2024-05-09T01:57:28.000Z,17.48
2024-05-09T01:58:43.000Z,12.939
2024-05-09T01:59:59.000Z,12.446
2024-05-09T02:01:15.000Z,12.82
2024-05-09T02:02:31.000Z,21.229
2024-05-09T02:03:46.000Z,15.592
2024-05-09T02:05:01.000Z,13.96
2024-05-09T02:06:17.000Z,15.629
2024-05-09T02:07:32.000Z,17.579
2024-05-09T02:08:49.000Z,23.858
2024-05-09T02:10:06.000Z,19.22
2024-05-09T02:11:21.000Z,16.004
2024-05-09T02:12:36.000Z,23.801
2024-05-09T02:13:52.000Z,16.881
2024-05-09T02:15:07.000Z,16.699
2024-05-09T02:16:22.000Z,14.804
2024-05-09T02:17:38.000Z,12.939
2024-05-09T02:18:55.000Z,22.294
2024-05-09T02:20:10.000Z,13.244
2024-05-09T02:21:26.000Z,16.607
2024-05-09T02:22:41.000Z,21.429
2024-05-09T02:23:56.000Z,15.281
2024-05-09T02:25:12.000Z,25.638
2024-05-09T02:26:28.000Z,19.26
2024-05-09T02:27:45.000Z,17.171
2024-05-09T02:29:00.000Z,12.82
2024-05-09T02:30:15.000Z,12.446
2024-05-09T02:31:31.000Z,15.533
2024-05-09T02:32:46.000Z,23.568
2024-05-09T02:34:01.000Z,13.688
2024-05-09T02:35:18.000Z,12.939
2024-05-09T02:36:34.000Z,17.168
2024-05-09T02:37:50.000Z,16.014
2024-05-09T02:39:05.000Z,15.35
2024-05-09T02:40:20.000Z,16.931
2024-05-09T02:41:35.000Z,20.095
2024-05-09T02:42:51.000Z,14.351
2024-05-09T02:44:07.000Z,20.209
2024-05-09T02:45:24.000Z,14.034
2024-05-09T02:46:39.000Z,13.078
2024-05-09T02:47:55.000Z,20.042
2024-05-09T02:49:10.000Z,18.287
2024-05-09T02:50:25.000Z,12.446
2024-05-09T02:51:41.000Z,16.957
2024-05-09T02:52:57.000Z,27.736
2024-05-09T02:54:13.000Z,12.939
2024-05-09T02:55:29.000Z,14.381
2024-05-09T02:56:44.000Z,19.079
2024-05-09T02:58:00.000Z,16.38
2024-05-09T02:59:14.000Z,14.381
2024-05-09T03:00:30.000Z,16.931
2024-05-09T03:01:46.000Z,16.485
2024-05-09T03:03:03.000Z,12.446
2024-05-09T03:04:20.000Z,14.804
2024-05-09T03:05:35.000Z,12.201
2024-05-09T03:06:50.000Z,13.738
2024-05-09T03:08:05.000Z,17.171
2024-05-09T03:09:20.000Z,13.244
2024-05-09T03:10:36.000Z,18.064
2024-05-09T03:11:52.000Z,21.154
2024-05-09T03:13:09.000Z,14.978
2024-05-09T03:14:24.000Z,13.187
2024-05-09T03:15:39.000Z,13.556
2024-05-09T03:16:54.000Z,21.624
2024-05-09T03:18:10.000Z,16.682
2024-05-09T03:19:25.000Z,13.434
2024-05-09T03:20:42.000Z,13.96
2024-05-09T03:21:58.000Z,17.18
2024-05-09T03:23:13.000Z,13.244
2024-05-09T03:24:28.000Z,27.736
2024-05-09T03:25:44.000Z,14.034
2024-05-09T03:26:59.000Z,14.978
2024-05-09T03:28:15.000Z,16.575
2024-05-09T03:29:31.000Z,14.709
2024-05-09T03:30:47.000Z,14.034
2024-05-09T03:32:02.000Z,13.394
2024-05-09T03:33:17.000Z,12.45
2024-05-09T03:34:33.000Z,21.369
2024-05-09T03:35:48.000Z,16.656
2024-05-09T03:37:04.000Z,12.82
2024-05-09T03:38:20.000Z,13.591
2024-05-09T03:39:37.000Z,16.459
2024-05-09T03:40:52.000Z,19.901
2024-05-09T03:42:07.000Z,16.808
2024-05-09T03:43:23.000Z,19.155
2024-05-09T03:44:38.000Z,15.318
2024-05-09T03:45:54.000Z,16.254
2024-05-09T03:47:10.000Z,16.444
2024-05-09T03:48:26.000Z,14.632
2024-05-09T03:49:42.000Z,16.072
2024-05-09T03:50:57.000Z,15.789
2024-05-09T03:52:13.000Z,21.315
2024-05-09T03:53:28.000Z,17.172
2024-05-09T03:54:43.000Z,11.182
2024-05-09T03:55:59.000Z,14.034
2024-05-09T03:57:15.000Z,12.446
2024-05-09T03:58:32.000Z,15.526
2024-05-09T03:59:47.000Z,12.547
2024-05-09T04:01:02.000Z,18.823
2024-05-09T04:02:18.000Z,18.528
2024-05-09T04:03:33.000Z,21.351
2024-05-09T04:04:49.000Z,14.034
2024-05-09T04:06:05.000Z,16.697
2024-05-09T04:07:22.000Z,18.064
2024-05-09T04:08:38.000Z,15.941
2024-05-09T04:09:53.000Z,18.491
2024-05-09T04:11:09.000Z,15.375
2024-05-09T04:12:25.000Z,13.944
2024-05-09T04:13:39.000Z,14.034
2024-05-09T04:14:55.000Z,12.839
2024-05-09T04:16:12.000Z,12.896
2024-05-09T04:17:28.000Z,17.376
2024-05-09T04:18:44.000Z,13.064
2024-05-09T04:19:59.000Z,13.426
2024-05-09T04:21:14.000Z,16.651
2024-05-09T04:22:29.000Z,23.196
2024-05-09T04:23:46.000Z,17.472
2024-05-09T04:25:02.000Z,76.176
2024-05-09T04:26:18.000Z,177.51
2024-05-09T04:27:33.000Z,237.612
2024-05-09T04:28:48.000Z,185.198
2024-05-09T04:30:04.000Z,118.806
2024-05-09T04:31:20.000Z,75.477
2024-05-09T04:32:35.000Z,47.522
2024-05-09T04:33:52.000Z,43.329
2024-05-09T04:35:08.000Z,32.846
2024-05-09T04:36:24.000Z,34.244
2024-05-09T04:37:39.000Z,25.858
2024-05-09T04:38:55.000Z,16.773
2024-05-09T04:40:11.000Z,10.483
2024-05-09T04:41:27.000Z,21.193
2024-05-09T04:42:42.000Z,16.802
2024-05-09T04:43:58.000Z,28.415
2024-05-09T04:45:15.000Z,30.633
2024-05-09T04:46:31.000Z,23.674
2024-05-09T04:47:46.000Z,17.845
2024-05-09T04:49:01.000Z,22.45
2024-05-09T04:50:16.000Z,19.603
2024-05-09T04:51:32.000Z,28.771
2024-05-09T04:52:48.000Z,26.262
2024-05-09T04:54:05.000Z,18.286
2024-05-09T04:55:21.000Z,31.731
2024-05-09T04:56:36.000Z,17.887
2024-05-09T04:57:51.000Z,20.202
2024-05-09T04:59:07.000Z,17.224
2024-05-09T05:00:23.000Z,23.769
2024-05-09T05:01:38.000Z,28.855
2024-05-09T05:02:54.000Z,18.054
2024-05-09T05:04:11.000Z,15.973
2024-05-09T05:05:26.000Z,20.186
2024-05-09T05:06:42.000Z,17.339
2024-05-09T05:07:56.000Z,20.089
2024-05-09T05:09:12.000Z,16.375
2024-05-09T05:10:27.000Z,21.996
2024-05-09T05:11:44.000Z,27.682
2024-05-09T05:13:00.000Z,33.742
2024-05-09T05:14:16.000Z,21.941
2024-05-09T05:15:31.000Z,29.876
2024-05-09T05:16:46.000Z,21.016
2024-05-09T05:18:01.000Z,29.24
2024-05-09T05:19:17.000Z,20.359
2024-05-09T05:20:33.000Z,21.348
2024-05-09T05:21:50.000Z,23.601
2024-05-09T05:23:06.000Z,17.579
2024-05-09T05:24:22.000Z,27.75
2024-05-09T05:25:37.000Z,19.047
2024-05-09T05:26:52.000Z,21.37
2024-05-09T05:28:08.000Z,29.877
2024-05-09T05:29:23.000Z,24.341
2024-05-09T05:30:40.000Z,35.846
2024-05-09T05:31:56.000Z,18.403
2024-05-09T05:33:12.000Z,24.441
2024-05-09T05:34:28.000Z,24.508
2024-05-09T05:35:43.000Z,22.817
2024-05-09T05:36:58.000Z,24.411
2024-05-09T05:38:13.000Z,25.693
2024-05-09T05:39:29.000Z,21.451
2024-05-09T05:40:46.000Z,16.524
2024-05-09T05:42:02.000Z,11.182
2024-05-09T05:43:18.000Z,15.533
2024-05-09T05:44:33.000Z,16.524
2024-05-09T05:45:48.000Z,22.591
2024-05-09T05:47:03.000Z,19.23
2024-05-09T05:48:19.000Z,15.929
2024-05-09T05:49:35.000Z,20.018
2024-05-09T05:50:53.000Z,14.352
2024-05-09T05:52:10.000Z,16.648
2024-05-09T05:53:25.000Z,30.466
2024-05-09T05:54:40.000Z,20.982
2024-05-09T05:55:55.000Z,24.053
2024-05-09T05:57:11.000Z,26.367
2024-05-09T05:58:26.000Z,24.895
2024-05-09T05:59:43.000Z,20.442
2024-05-09T06:00:59.000Z,18.866
2024-05-09T06:02:15.000Z,26.321
2024-05-09T06:03:30.000Z,32.468
2024-05-09T06:04:45.000Z,21.707
2024-05-09T06:06:00.000Z,13.461
2024-05-09T06:07:16.000Z,23.986
2024-05-09T06:08:32.000Z,19.349
2024-05-09T06:09:48.000Z,13.714
2024-05-09T06:11:04.000Z,20.179
2024-05-09T06:12:19.000Z,18.749
2024-05-09T06:13:34.000Z,11.881
2024-05-09T06:14:50.000Z,25.033
2024-05-09T06:16:05.000Z,18.301
2024-05-09T06:17:22.000Z,18.299
2024-05-09T06:18:38.000Z,15.167
2024-05-09T06:19:53.000Z,17.096
2024-05-09T06:21:09.000Z,16.608
2024-05-09T06:22:24.000Z,14.804
2024-05-09T06:23:39.000Z,13.14
2024-05-09T06:24:54.000Z,17.14
2024-05-09T06:26:11.000Z,12.446
2024-05-09T06:27:28.000Z,17.682
2024-05-09T06:28:44.000Z,11.881
2024-05-09T06:29:59.000Z,12.158
2024-05-09T06:31:14.000Z,13.9
2024-05-09T06:32:29.000Z,20.723
2024-05-09T06:33:45.000Z,18.528
2024-05-09T06:35:00.000Z,15.7
2024-05-09T06:36:17.000Z,11.881
2024-05-09T06:37:33.000Z,14.632
2024-05-09T06:38:49.000Z,20.703
2024-05-09T06:40:04.000Z,12.578
2024-05-09T06:41:19.000Z,13.244
2024-05-09T06:42:35.000Z,16.651
2024-05-09T06:43:52.000Z,12.896
2024-05-09T06:45:07.000Z,18.286
2024-05-09T06:46:23.000Z,12.578
2024-05-09T06:47:38.000Z,13.365
2024-05-09T06:48:53.000Z,12.578
2024-05-09T06:50:08.000Z,12.26
2024-05-09T06:51:24.000Z,17.455
2024-05-09T06:52:40.000Z,13.127
2024-05-09T06:53:56.000Z,18.721
2024-05-09T06:55:12.000Z,16.353
2024-05-09T06:56:27.000Z,20.437
2024-05-09T06:57:42.000Z,15.592
2024-05-09T06:58:57.000Z,20.443
2024-05-09T07:00:13.000Z,23.887
2024-05-09T07:01:29.000Z,18.681
2024-05-09T07:02:46.000Z,19.195
2024-05-09T07:04:01.000Z,18.301
2024-05-09T07:05:16.000Z,17.275
2024-05-09T07:06:31.000Z,15.89
2024-05-09T07:07:46.000Z,19.359
2024-05-09T07:09:03.000Z,17.702
2024-05-09T07:10:19.000Z,25.608
2024-05-09T07:11:34.000Z,12.201
2024-05-09T07:12:49.000Z,14.133
2024-05-09T07:14:05.000Z,15.292
2024-05-09T07:15:20.000Z,13.591
2024-05-09T07:16:35.000Z,18.491
2024-05-09T07:17:52.000Z,22.145
2024-05-09T07:19:08.000Z,16.348
2024-05-09T07:20:23.000Z,14.034
2024-05-09T07:21:39.000Z,15.533
2024-05-09T07:22:54.000Z,15.292
2024-05-09T07:24:09.000Z,15.292
2024-05-09T07:25:25.000Z,19.039
2024-05-09T07:26:42.000Z,17.275
2024-05-09T07:27:58.000Z,14.174
2024-05-09T07:29:14.000Z,15.766
2024-05-09T07:30:29.000Z,16.179
2024-05-09T07:31:45.000Z,12.939
2024-05-09T07:33:00.000Z,16.126
2024-05-09T07:34:15.000Z,13.231
2024-05-09T07:35:31.000Z,19.186
2024-05-09T07:36:48.000Z,19.27
2024-05-09T07:38:04.000Z,14.554
2024-05-09T07:39:19.000Z,17.684
2024-05-09T07:40:34.000Z,19.575
2024-05-09T07:41:50.000Z,16.607
2024-05-09T07:41:50.000Z,16.607
2024-05-09T07:43:05.000Z,14.709
2024-05-09T07:43:05.000Z,14.709
2024-05-09T07:44:21.000Z,16.595
2024-05-09T07:44:21.000Z,16.595
2024-05-09T07:45:37.000Z,14.927
2024-05-09T07:45:37.000Z,14.927
2024-05-09T07:46:53.000Z,17.543
2024-05-09T07:46:53.000Z,17.543
2024-05-09T07:48:09.000Z,13.078
2024-05-09T07:48:09.000Z,13.078
2024-05-09T07:49:24.000Z,24.46
2024-05-09T07:49:24.000Z,24.46
2024-05-09T07:50:39.000Z,136.278
2024-05-09T07:50:39.000Z,136.278
2024-05-09T07:51:55.000Z,68.488
2024-05-09T07:53:11.000Z,18.17
2024-05-09T07:54:27.000Z,25.858
2024-05-09T07:55:43.000Z,75.477
2024-05-09T07:56:58.000Z,24.46
2024-05-09T07:58:14.000Z,12.579
2024-05-09T07:59:29.000Z,16.074
2024-05-09T08:00:44.000Z,20.265
2024-05-09T08:02:01.000Z,16.879
2024-05-09T08:03:17.000Z,22.628
2024-05-09T08:04:33.000Z,17.472
2024-05-09T08:05:49.000Z,24.778
2024-05-09T08:07:04.000Z,14.182
2024-05-09T08:08:19.000Z,18.882
2024-05-09T08:09:35.000Z,14.804
2024-05-09T08:10:50.000Z,16.219
2024-05-09T08:12:06.000Z,14.91
2024-05-09T08:13:23.000Z,13.182
2024-05-09T08:14:39.000Z,24.384
2024-05-09T08:15:54.000Z,19.479
2024-05-09T08:17:09.000Z,16.38
2024-05-09T08:18:25.000Z,16.808
2024-05-09T08:19:40.000Z,19.155
2024-05-09T08:20:55.000Z,23.334
2024-05-09T08:22:12.000Z,14.386
2024-05-09T08:23:28.000Z,12.694
2024-05-09T08:24:44.000Z,12.446
2024-05-09T08:25:59.000Z,13.394
2024-05-09T08:27:14.000Z,21.547
2024-05-09T08:28:29.000Z,12.939
2024-05-09T08:29:45.000Z,12.939
2024-05-09T08:31:01.000Z,16.992
2024-05-09T08:32:19.000Z,16.808
2024-05-09T08:33:35.000Z,12.82
2024-05-09T08:34:50.000Z,18.778
2024-05-09T08:36:06.000Z,13.831
2024-05-09T08:37:21.000Z,15.605
2024-05-09T08:38:36.000Z,12.82
2024-05-09T08:39:52.000Z,20.092
2024-05-09T08:41:08.000Z,13.96
2024-05-09T08:42:25.000Z,16.025
2024-05-09T08:43:41.000Z,13.703
2024-05-09T08:44:56.000Z,13.127
2024-05-09T08:46:12.000Z,13.688
2024-05-09T08:47:27.000Z,13.494
2024-05-09T08:48:43.000Z,27.954
2024-05-09T08:49:59.000Z,12.82
2024-05-09T08:51:15.000Z,12.578
2024-05-09T08:52:32.000Z,17.447
2024-05-09T08:53:47.000Z,14.092
2024-05-09T08:55:02.000Z,15.292
2024-05-09T08:56:17.000Z,12.26
2024-05-09T08:57:33.000Z,17.682
2024-05-09T08:58:48.000Z,12.45
2024-05-09T09:00:04.000Z,12.82
2024-05-09T09:01:20.000Z,12.82
2024-05-09T09:02:35.000Z,16.803
2024-05-09T09:03:51.000Z,14.927
2024-05-09T09:05:06.000Z,12.82
2024-05-09T09:06:21.000Z,12.939
2024-05-09T09:07:37.000Z,13.96
2024-05-09T09:08:53.000Z,101.542
2024-05-09T09:10:10.000Z,14.657
2024-05-09T09:11:25.000Z,12.939
2024-05-09T09:12:40.000Z,19.432
2024-05-09T09:13:55.000Z,12.82
2024-05-09T09:15:10.000Z,12.26
2024-05-09T09:16:26.000Z,18.528
2024-05-09T09:17:43.000Z,19.122
2024-05-09T09:18:59.000Z,14.927
2024-05-09T09:20:14.000Z,12.939
2024-05-09T09:21:29.000Z,14.034
2024-05-09T09:22:45.000Z,12.939
2024-05-09T09:24:00.000Z,14.632
2024-05-09T09:25:15.000Z,19.27
2024-05-09T09:26:31.000Z,15.629
2024-05-09T09:27:48.000Z,15.423
2024-05-09T09:29:04.000Z,18.212
2024-05-09T09:30:19.000Z,12.82
2024-05-09T09:31:34.000Z,14.092
2024-05-09T09:32:49.000Z,17.48
2024-05-09T09:34:04.000Z,13.96
2024-05-09T09:35:21.000Z,22.05
2024-05-09T09:36:38.000Z,12.26
2024-05-09T09:37:53.000Z,16.957
2024-05-09T09:39:09.000Z,12.82
2024-05-09T09:40:24.000Z,12.82
2024-05-09T09:41:39.000Z,15.592
2024-05-09T09:42:55.000Z,110.711
2024-05-09T09:44:10.000Z,17.579
2024-05-09T09:45:27.000Z,12.867
2024-05-09T09:46:43.000Z,12.158
2024-05-09T09:47:59.000Z,12.939
2024-05-09T09:49:14.000Z,12.82
2024-05-09T09:50:29.000Z,14.657
2024-05-09T09:51:45.000Z,12.939
2024-05-09T09:53:00.000Z,19.155
2024-05-09T09:54:16.000Z,14.804
2024-05-09T09:55:33.000Z,12.939
2024-05-09T09:56:49.000Z,15.167
2024-05-09T09:58:04.000Z,14.804
2024-05-09T09:59:19.000Z,15.423
2024-05-09T10:00:35.000Z,14.731
2024-05-09T10:01:50.000Z,12.82
2024-05-09T10:03:06.000Z,14.338
2024-05-09T10:04:23.000Z,14.182
2024-05-09T10:05:39.000Z,15.855
2024-05-09T10:06:55.000Z,12.82
2024-05-09T10:08:10.000Z,16.881
2024-05-09T10:09:25.000Z,13.127
2024-05-09T10:10:40.000Z,21.681
2024-05-09T10:11:56.000Z,12.158
2024-05-09T10:13:12.000Z,15.423
2024-05-09T10:14:28.000Z,12.939
2024-05-09T10:15:45.000Z,12.82
2024-05-09T10:17:00.000Z,16.656
2024-05-09T10:18:15.000Z,14.239
2024-05-09T10:19:30.000Z,19.27
2024-05-09T10:20:46.000Z,15.605
2024-05-09T10:22:02.000Z,14.092
2024-05-09T10:23:18.000Z,12.939
2024-05-09T10:24:34.000Z,14.034
2024-05-09T10:25:49.000Z,14.804
2024-05-09T10:27:04.000Z,15.318
2024-05-09T10:28:19.000Z,15.592
2024-05-09T10:29:34.000Z,12.82
2024-05-09T10:30:51.000Z,14.122
2024-05-09T10:32:07.000Z,12.939
2024-05-09T10:33:23.000Z,14.676
2024-05-09T10:34:39.000Z,17.447
2024-05-09T10:35:54.000Z,14.657
2024-05-09T10:37:10.000Z,12.82
2024-05-09T10:38:25.000Z,18.328
2024-05-09T10:39:40.000Z,13.244
2024-05-09T10:40:57.000Z,40.534
2024-05-09T10:42:13.000Z,16.651
2024-05-09T10:43:29.000Z,18.299
2024-05-09T10:44:44.000Z,15.924
2024-05-09T10:45:59.000Z,16.879
2024-05-09T10:47:14.000Z,16.004
2024-05-09T10:48:30.000Z,19.994
2024-05-09T10:49:46.000Z,12.939
2024-05-09T10:51:03.000Z,12.939
2024-05-09T10:52:19.000Z,13.064
2024-05-09T10:53:34.000Z,19.122
2024-05-09T10:54:50.000Z,16.575
2024-05-09T10:56:05.000Z,19.26
2024-05-09T10:57:20.000Z,16.004
2024-05-09T10:58:36.000Z,14.034
2024-05-09T10:59:52.000Z,15.292
2024-05-09T11:01:09.000Z,12.578
2024-05-09T11:02:25.000Z,14.239
2024-05-09T11:03:40.000Z,12.201
2024-05-09T11:04:56.000Z,19.195
2024-05-09T11:06:11.000Z,15.281
2024-05-09T11:07:26.000Z,15.318
2024-05-09T11:08:42.000Z,13.301
2024-05-09T11:09:58.000Z,12.82
2024-05-09T11:11:14.000Z,15.318
2024-05-09T11:12:30.000Z,14.034
2024-05-09T11:13:46.000Z,12.939
2024-05-09T11:15:01.000Z,16.219
2024-05-09T11:16:17.000Z,14.804
2024-05-09T11:17:32.000Z,16.38
2024-05-09T11:18:48.000Z,12.82
2024-05-09T11:20:05.000Z,12.939
2024-05-09T11:21:21.000Z,15.281
2024-05-09T11:22:36.000Z,19.479
2024-05-09T11:23:52.000Z,12.939
2024-05-09T11:25:07.000Z,12.578
2024-05-09T11:26:22.000Z,26.66
2024-05-09T11:27:37.000Z,18.075
2024-05-09T11:28:54.000Z,17.093
2024-05-09T11:30:10.000Z,14.038
2024-05-09T11:31:26.000Z,15.731
2024-05-09T11:32:42.000Z,12.939
2024-05-09T11:33:57.000Z,12.82
2024-05-09T11:35:12.000Z,12.446
2024-05-09T11:36:27.000Z,18.721
2024-05-09T11:37:43.000Z,13.872
2024-05-09T11:39:00.000Z,13.96
2024-05-09T11:40:16.000Z,14.034
2024-05-09T11:41:31.000Z,15.629
2024-05-09T11:42:46.000Z,12.602
2024-05-09T11:44:02.000Z,12.201
2024-05-09T11:45:17.000Z,12.748
2024-05-09T11:46:33.000Z,16.163
2024-05-09T11:47:49.000Z,23.621
2024-05-09T11:49:05.000Z,18.636
2024-05-09T11:50:21.000Z,17.48
2024-05-09T11:51:36.000Z,15.844
2024-05-09T11:52:52.000Z,13.714
2024-05-09T11:54:08.000Z,17.424
2024-05-09T11:55:23.000Z,17.109
2024-05-09T11:56:39.000Z,16.025
2024-05-09T11:57:55.000Z,17.567
2024-05-09T11:59:12.000Z,14.927
2024-05-09T12:00:27.000Z,14.283
2024-05-09T12:01:43.000Z,21.476
2024-05-09T12:02:58.000Z,12.82
2024-05-09T12:04:14.000Z,16.219
2024-05-09T12:05:29.000Z,13.127
2024-05-09T12:06:44.000Z,13.96
2024-05-09T12:08:01.000Z,12.158
2024-05-09T12:09:17.000Z,18.51
2024-05-09T12:10:32.000Z,12.419
2024-05-09T12:11:47.000Z,17.447
2024-05-09T12:13:03.000Z,12.578
2024-05-09T12:14:18.000Z,12.82
2024-05-09T12:15:33.000Z,12.446
2024-05-09T12:16:49.000Z,12.446
2024-05-09T12:18:06.000Z,21.085
2024-05-09T12:19:21.000Z,14.676
2024-05-09T12:20:36.000Z,16.957
2024-05-09T12:21:51.000Z,13.96
2024-05-09T12:23:07.000Z,12.82
2024-05-09T12:24:22.000Z,12.158
2024-05-09T12:25:39.000Z,12.867
2024-05-09T12:26:55.000Z,13.461
2024-05-09T12:28:11.000Z,16.38
2024-05-09T12:29:26.000Z,12.201
2024-05-09T12:30:41.000Z,12.419
2024-05-09T12:31:57.000Z,16.348
2024-05-09T12:33:12.000Z,13.064
2024-05-09T12:34:28.000Z,12.419
2024-05-09T12:35:44.000Z,12.201
2024-05-09T12:37:00.000Z,13.301
2024-05-09T12:38:15.000Z,16.147
2024-05-09T12:39:31.000Z,17.12
2024-05-09T12:40:46.000Z,13.688
2024-05-09T12:42:01.000Z,12.26
2024-05-09T12:43:17.000Z,12.201
2024-05-09T12:44:33.000Z,12.602
2024-05-09T12:45:49.000Z,8.386
2024-05-09T12:47:05.000Z,13.413
2024-05-09T12:48:20.000Z,13.147
2024-05-09T12:49:35.000Z,12.896
2024-05-09T12:50:50.000Z,14.092
2024-05-09T12:52:06.000Z,12.578
2024-05-09T12:53:22.000Z,13.474
2024-05-09T12:54:39.000Z,15.533
2024-05-09T12:55:54.000Z,12.975
2024-05-09T12:57:10.000Z,8.386
2024-05-09T12:58:31.000Z,8.386
2024-05-09T12:59:52.000Z,9.085
2024-05-09T13:01:09.000Z,17.472
2024-05-09T13:02:25.000Z,14.663
2024-05-09T13:03:40.000Z,13.278
2024-05-09T13:04:55.000Z,23.062
2024-05-09T13:06:10.000Z,25.159
2024-05-09T13:07:26.000Z,34.244
2024-05-09T13:08:42.000Z,29.352
2024-05-09T13:09:58.000Z,24.46
2024-05-09T13:11:14.000Z,27.256
2024-05-09T13:12:29.000Z,11.881
2024-05-09T13:13:44.000Z,15.744
2024-05-09T13:14:59.000Z,16.215
2024-05-09T13:16:15.000Z,13.789
2024-05-09T13:17:31.000Z,14.544
2024-05-09T13:18:48.000Z,12.939
2024-05-09T13:20:03.000Z,14.927
2024-05-09T13:21:18.000Z,12.939
2024-05-09T13:22:33.000Z,15.134
2024-05-09T13:23:49.000Z,16.674
2024-05-09T13:25:05.000Z,15.629
2024-05-09T13:26:22.000Z,13.301
2024-05-09T13:27:38.000Z,15.318
2024-05-09T13:28:53.000Z,18.17
2024-05-09T13:30:09.000Z,13.703
2024-05-09T13:31:24.000Z,12.578
2024-05-09T13:32:39.000Z,12.82
2024-05-09T13:33:55.000Z,12.158
2024-05-09T13:35:11.000Z,15.444
2024-05-09T13:36:27.000Z,15.167
2024-05-09T13:37:43.000Z,13.127
2024-05-09T13:38:58.000Z,12.939
2024-05-09T13:40:13.000Z,14.657
2024-05-09T13:41:28.000Z,15.292
2024-05-09T13:42:44.000Z,27.467
2024-05-09T13:44:00.000Z,16.219
2024-05-09T13:45:16.000Z,17.447
2024-05-09T13:46:31.000Z,16.219
2024-05-09T13:47:47.000Z,16.651
2024-05-09T13:49:02.000Z,14.092
2024-05-09T13:50:17.000Z,20.687
2024-05-09T13:51:33.000Z,17.196
2024-05-09T13:52:50.000Z,18.573
2024-05-09T13:54:06.000Z,17.018
2024-05-09T13:55:22.000Z,16.38
2024-05-09T13:56:37.000Z,18.299
2024-05-09T13:57:52.000Z,14.239
2024-05-09T13:59:07.000Z,12.45
2024-05-09T14:00:22.000Z,16.851
2024-05-09T14:01:38.000Z,21.08
2024-05-09T14:02:55.000Z,17.343
2024-05-09T14:04:10.000Z,15.592
2024-05-09T14:05:26.000Z,14.034
2024-05-09T14:06:41.000Z,19.351
2024-05-09T14:07:56.000Z,15.423
2024-05-09T14:09:12.000Z,12.419
2024-05-09T14:10:28.000Z,8.386
2024-05-09T14:11:44.000Z,16.025
2024-05-09T14:12:59.000Z,16.219
2024-05-09T14:14:14.000Z,14.032
2024-05-09T14:15:29.000Z,18.303
2024-05-09T14:16:44.000Z,19.463
2024-05-09T14:18:00.000Z,20.44
2024-05-09T14:19:17.000Z,21.701
2024-05-09T14:20:33.000Z,13.187
2024-05-09T14:21:49.000Z,12.446
2024-05-09T14:23:04.000Z,21.941
2024-05-09T14:24:19.000Z,24.918
2024-05-09T14:25:34.000Z,16.747
2024-05-09T14:26:50.000Z,21.022
2024-05-09T14:28:06.000Z,22.235
2024-05-09T14:29:23.000Z,18.482
2024-05-09T14:30:39.000Z,19.999
2024-05-09T14:31:55.000Z,22.994
2024-05-09T14:33:10.000Z,14.709
2024-05-09T14:34:25.000Z,12.578
2024-05-09T14:35:41.000Z,15.318
2024-05-09T14:36:56.000Z,14.034
2024-05-09T14:38:13.000Z,14.092
2024-05-09T14:39:29.000Z,15.292
2024-05-09T14:40:45.000Z,13.064
2024-05-09T14:42:00.000Z,12.26
2024-05-09T14:43:15.000Z,13.489
2024-05-09T14:44:30.000Z,13.127
2024-05-09T14:45:46.000Z,15.731
2024-05-09T14:47:03.000Z,19.139
2024-05-09T14:48:19.000Z,14.034
2024-05-09T14:49:35.000Z,18.064
2024-05-09T14:50:50.000Z,19.26
2024-05-09T14:52:05.000Z,23.084
2024-05-09T14:53:21.000Z,16.004
2024-05-09T14:54:36.000Z,17.12
2024-05-09T14:55:52.000Z,12.939
2024-05-09T14:57:09.000Z,12.939
2024-05-09T14:58:25.000Z,12.26
2024-05-09T14:59:41.000Z,11.182
2024-05-09T15:00:56.000Z,8.386
2024-05-09T15:02:11.000Z,16.773
2024-05-09T15:03:27.000Z,13.154
2024-05-09T15:04:43.000Z,22.727
2024-05-09T15:05:58.000Z,12.939
2024-05-09T15:07:15.000Z,12.939
2024-05-09T15:08:31.000Z,20.359
2024-05-09T15:09:46.000Z,12.201
2024-05-09T15:11:01.000Z,24.378
2024-05-09T15:12:17.000Z,18.63
2024-05-09T15:13:32.000Z,12.578
2024-05-09T15:14:48.000Z,14.338
2024-05-09T15:16:04.000Z,12.82
2024-05-09T15:17:20.000Z,19.444
2024-05-09T15:18:36.000Z,15.731
2024-05-09T15:19:51.000Z,12.158
2024-05-09T15:21:06.000Z,12.237
2024-05-09T15:22:21.000Z,20.728
2024-05-09T15:23:37.000Z,16.025
2024-05-09T15:24:54.000Z,23.888
2024-05-09T15:26:10.000Z,19.386
2024-05-09T15:27:27.000Z,20.501
2024-05-09T15:43:38.000Z,15.432
2024-05-09T15:44:59.000Z,13.127
2024-05-09T15:46:21.000Z,16.808
2024-05-09T15:47:43.000Z,19.033
2024-05-09T15:49:04.000Z,12.82
2024-05-09T15:50:26.000Z,15.812
2024-05-09T15:51:48.000Z,25.044
2024-05-09T15:53:10.000Z,97.065